createdAt,value
2019-04-07T00:00:02.917Z,80.66
2019-04-07T00:02:33.112Z,80.68
2019-04-07T00:05:11.031Z,80.67
2019-04-07T00:07:35.281Z,80.69
2019-04-07T00:10:09.775Z,80.81
2019-04-07T00:12:40.140Z,80.90
2019-04-07T00:15:10.468Z,81.44
2019-04-07T00:17:40.715Z,81.50
2019-04-07T00:20:11.035Z,81.47
2019-04-07T00:22:41.185Z,81.37
2019-04-07T00:25:11.929Z,81.27
2019-04-07T00:27:42.185Z,81.14
2019-04-07T00:30:13.623Z,80.98
2019-04-07T00:32:44.259Z,80.97
2019-04-07T00:35:23.321Z,80.89
2019-04-07T00:37:46.747Z,80.89
2019-04-07T00:40:17.521Z,80.85
2019-04-07T00:42:48.046Z,80.84
2019-04-07T00:45:18.550Z,80.80
2019-04-07T00:47:49.388Z,80.83
2019-04-07T00:50:19.591Z,80.90
2019-04-07T00:52:50.207Z,80.97
2019-04-07T00:55:20.476Z,80.86
2019-04-07T00:57:50.785Z,80.95
2019-04-07T01:00:23.516Z,80.97
2019-04-07T01:02:54.122Z,80.96
2019-04-07T01:05:35.337Z,80.93
2019-04-07T01:07:56.446Z,80.95
2019-04-07T01:10:27.271Z,80.97
2019-04-07T01:12:57.376Z,80.97
2019-04-07T01:15:27.887Z,81.04
2019-04-07T01:17:58.054Z,81.05
2019-04-07T01:20:28.199Z,81.09
2019-04-07T01:22:58.287Z,81.09
2019-04-07T01:25:28.423Z,81.10
2019-04-07T01:27:58.642Z,81.14
2019-04-07T01:30:29.327Z,81.15
2019-04-07T01:33:00.015Z,81.20
2019-04-07T01:35:30.452Z,81.14
2019-04-07T01:38:01.364Z,81.19
2019-04-07T01:40:32.203Z,81.26
2019-04-07T01:43:25.067Z,81.26
2019-04-07T01:46:05.194Z,81.37
2019-04-07T01:48:53.289Z,81.49
2019-04-07T01:51:41.068Z,81.57
2019-04-07T01:54:28.582Z,81.60
2019-04-07T01:57:06.481Z,81.57
2019-04-07T01:59:54.082Z,81.58
2019-04-07T02:02:41.379Z,81.61
2019-04-07T02:05:39.539Z,81.57
2019-04-07T02:08:25.494Z,81.60
2019-04-07T02:11:06.042Z,81.63
2019-04-07T02:13:48.425Z,81.69
2019-04-07T02:16:46.595Z,81.75
2019-04-07T02:19:34.450Z,81.75
2019-04-07T02:22:11.624Z,81.72
2019-04-07T02:27:31.824Z,81.89
2019-04-07T02:30:14.392Z,81.93
2019-04-07T02:33:03.565Z,82.01
2019-04-07T02:35:52.681Z,82.05
2019-04-07T02:38:39.843Z,82.02
2019-04-07T02:41:26.092Z,81.97
2019-04-07T02:44:17.921Z,81.96
2019-04-07T02:46:56.931Z,82.05
2019-04-07T02:49:52.602Z,82.12
2019-04-07T02:52:53.451Z,82.03
2019-04-07T02:55:38.052Z,82.06
2019-04-07T02:58:25.796Z,82.10
2019-04-07T03:01:11.765Z,82.00
2019-04-07T03:04:09.745Z,82.07
2019-04-07T03:07:07.814Z,82.07
2019-04-07T03:10:09.011Z,82.08
2019-04-07T03:13:10.636Z,82.05
2019-04-07T03:15:46.214Z,82.08
2019-04-07T03:18:47.223Z,82.10
2019-04-07T03:21:45.827Z,82.11
2019-04-07T03:24:33.563Z,82.09
2019-04-07T03:27:22.077Z,82.08
2019-04-07T03:30:25.149Z,82.11
2019-04-07T03:33:21.588Z,82.08
2019-04-07T03:36:10.750Z,81.97
2019-04-07T03:38:58.153Z,81.87
2019-04-07T03:41:57.085Z,81.76
2019-04-07T03:44:36.602Z,81.69
2019-04-07T03:47:12.637Z,81.66
2019-04-07T03:50:03.567Z,81.58
2019-04-07T03:52:52.627Z,81.51
2019-04-07T03:55:29.905Z,81.50
2019-04-07T03:58:18.134Z,81.42
2019-04-07T04:01:33.026Z,81.32
2019-04-07T04:04:15.748Z,81.26
2019-04-07T04:07:16.339Z,81.24
2019-04-07T04:09:51.784Z,81.20
2019-04-07T04:12:29.803Z,81.14
2019-04-07T04:15:03.633Z,80.33
2019-04-07T04:17:34.674Z,80.54
2019-04-07T04:20:06.224Z,80.53
2019-04-07T04:22:36.644Z,80.44
2019-04-07T04:25:08.638Z,80.37
2019-04-07T04:27:39.200Z,80.34
2019-04-07T04:30:11.851Z,80.31
2019-04-07T04:32:42.314Z,80.23
2019-04-07T04:35:12.517Z,80.19
2019-04-07T04:37:49.627Z,80.20
2019-04-07T04:40:15.951Z,80.25
2019-04-07T04:42:46.163Z,80.26
2019-04-07T04:45:16.387Z,80.28
2019-04-07T04:47:46.700Z,80.30
2019-04-07T04:50:16.916Z,80.31
2019-04-07T04:52:47.169Z,80.31
2019-04-07T04:55:17.296Z,80.33
2019-04-07T04:57:47.986Z,80.41
2019-04-07T05:00:18.848Z,80.47
2019-04-07T05:02:50.342Z,80.53
2019-04-07T05:05:21.228Z,80.48
2019-04-07T05:07:59.131Z,80.53
2019-04-07T05:10:24.843Z,80.65
2019-04-07T05:12:56.083Z,80.69
2019-04-07T05:15:26.729Z,80.77
2019-04-07T05:17:57.367Z,80.83
2019-04-07T05:20:28.485Z,80.83
2019-04-07T05:22:59.816Z,80.81
2019-04-07T05:25:30.305Z,80.83
2019-04-07T05:28:01.221Z,80.92
2019-04-07T05:30:32.472Z,80.87
2019-04-07T05:35:34.135Z,80.95
2019-04-07T05:38:06.622Z,81.04
2019-04-07T05:40:36.743Z,81.10
2019-04-07T05:43:07.308Z,81.10
2019-04-07T05:45:37.806Z,81.09
2019-04-07T05:48:08.339Z,81.04
2019-04-07T05:50:39.508Z,80.96
2019-04-07T05:53:13.453Z,80.88
2019-04-07T05:55:43.650Z,80.76
2019-04-07T05:58:15.847Z,80.64
2019-04-07T06:00:48.615Z,80.57
2019-04-07T06:03:23.894Z,80.45
2019-04-07T06:05:55.021Z,80.33
2019-04-07T06:08:36.025Z,80.25
2019-04-07T06:11:02.446Z,80.14
2019-04-07T06:13:43.360Z,80.02
2019-04-07T06:16:14.073Z,79.88
2019-04-07T06:18:44.547Z,79.75
2019-04-07T06:21:16.147Z,79.62
2019-04-07T06:23:46.953Z,79.49
2019-04-07T06:26:17.626Z,79.35
2019-04-07T06:28:51.560Z,79.25
2019-04-07T06:31:21.562Z,79.06
2019-04-07T06:33:54.910Z,78.91
2019-04-07T06:36:26.576Z,78.71
2019-04-07T06:38:56.417Z,78.50
2019-04-07T06:41:30.082Z,78.32
2019-04-07T06:44:08.735Z,78.12
2019-04-07T06:46:35.903Z,77.93
2019-04-07T06:49:14.033Z,77.73
2019-04-07T06:51:55.478Z,77.49
2019-04-07T06:58:06.113Z,77.06
2019-04-07T07:00:46.041Z,76.85
2019-04-07T07:03:41.873Z,76.59
2019-04-07T07:06:28.531Z,76.29
2019-04-07T07:09:11.150Z,76.02
2019-04-07T07:11:56.137Z,75.74
2019-04-07T07:14:55.039Z,75.40
2019-04-07T07:17:59.983Z,75.15
2019-04-07T07:20:52.669Z,74.81
2019-04-07T07:23:27.309Z,74.52
2019-04-07T07:26:00.987Z,74.35
2019-04-07T07:28:29.567Z,74.08
2019-04-07T07:31:00.084Z,73.65
2019-04-07T07:33:30.189Z,73.25
2019-04-07T07:36:01.155Z,72.80
2019-04-07T07:38:32.740Z,72.39
2019-04-07T07:41:04.636Z,71.95
2019-04-07T07:43:36.017Z,71.71
2019-04-07T07:46:06.879Z,71.26
2019-04-07T07:48:37.753Z,70.78
2019-04-07T07:51:10.926Z,70.36
2019-04-07T07:53:40.419Z,70.02
2019-04-07T07:56:13.119Z,69.66
2019-04-07T07:58:42.558Z,69.30
2019-04-07T08:01:14.872Z,68.87
2019-04-07T08:03:45.869Z,68.34
2019-04-07T08:06:17.261Z,67.94
2019-04-07T08:08:48.617Z,67.45
2019-04-07T08:11:19.000Z,67.21
2019-04-07T08:13:49.242Z,66.67
2019-04-07T08:16:19.441Z,66.46
2019-04-07T08:18:49.950Z,66.07
2019-04-07T08:21:20.546Z,65.58
2019-04-07T08:23:50.834Z,65.32
2019-04-07T08:26:24.351Z,64.92
2019-04-07T08:28:53.376Z,64.57
2019-04-07T08:31:24.108Z,64.31
2019-04-07T08:33:54.861Z,63.91
2019-04-07T08:36:25.886Z,63.56
2019-04-07T08:38:57.168Z,63.43
2019-04-07T08:41:27.801Z,62.92
2019-04-07T08:43:58.063Z,62.47
2019-04-07T08:46:35.603Z,61.99
2019-04-07T08:49:03.686Z,61.42
2019-04-07T08:51:33.983Z,61.12
2019-04-07T08:54:04.875Z,60.64
2019-04-07T08:56:36.639Z,60.06
2019-04-07T08:59:09.498Z,59.64
2019-04-07T09:01:38.799Z,59.35
2019-04-07T09:04:09.473Z,59.32
2019-04-07T09:06:39.773Z,58.97
2019-04-07T09:09:10.119Z,58.70
2019-04-07T09:11:41.583Z,58.13
2019-04-07T09:14:14.729Z,57.83
2019-04-07T09:17:02.272Z,57.79
2019-04-07T09:19:54.699Z,57.66
2019-04-07T09:22:34.714Z,57.09
2019-04-07T09:25:18.213Z,57.04
2019-04-07T09:28:14.254Z,56.86
2019-04-07T09:30:50.563Z,56.77
2019-04-07T09:33:39.876Z,56.62
2019-04-07T09:36:37.988Z,56.46
2019-04-07T09:39:26.944Z,55.97
2019-04-07T09:42:18.693Z,55.97
2019-04-07T09:45:09.541Z,55.97
2019-04-07T09:47:55.244Z,55.71
2019-04-07T09:50:35.025Z,55.55
2019-04-07T09:53:30.480Z,55.28
2019-04-07T09:56:18.393Z,55.05
2019-04-07T09:59:19.189Z,54.89
2019-04-07T10:02:16.638Z,54.49
2019-04-07T10:05:04.147Z,54.17
2019-04-07T10:07:56.777Z,54.13
2019-04-07T10:11:00.847Z,53.83
2019-04-07T10:13:40.913Z,53.56
2019-04-07T10:16:20.116Z,53.41
2019-04-07T10:18:59.332Z,53.16
2019-04-07T10:22:00.248Z,53.00
2019-04-07T10:24:47.178Z,53.20
2019-04-07T10:27:45.096Z,52.39
2019-04-07T10:30:24.329Z,52.53
2019-04-07T10:33:26.124Z,52.04
2019-04-07T10:36:14.785Z,51.67
2019-04-07T10:39:02.018Z,51.56
2019-04-07T10:41:43.194Z,51.55
2019-04-07T10:44:38.131Z,51.51
2019-04-07T10:47:23.947Z,51.42
2019-04-07T10:50:13.013Z,51.10
2019-04-07T10:53:02.654Z,50.85
2019-04-07T10:55:39.588Z,50.64
2019-04-07T10:58:24.804Z,50.04
2019-04-07T11:01:17.738Z,49.57
2019-04-07T11:04:11.780Z,49.30
2019-04-07T11:06:57.454Z,49.32
2019-04-07T11:09:47.521Z,49.04
2019-04-07T11:12:42.990Z,48.87
2019-04-07T11:15:37.049Z,48.16
2019-04-07T11:18:22.973Z,47.89
2019-04-07T11:21:11.087Z,47.43
2019-04-07T11:24:06.493Z,46.15
2019-04-07T11:27:01.827Z,46.91
2019-04-07T11:29:39.764Z,47.02
2019-04-07T11:32:28.936Z,46.79
2019-04-07T11:35:12.769Z,46.69
2019-04-07T11:37:49.471Z,46.50
2019-04-07T11:40:52.194Z,45.13
2019-04-07T11:43:30.575Z,43.90
2019-04-07T11:46:37.557Z,42.77
2019-04-07T11:49:43.867Z,42.20
2019-04-07T11:52:24.590Z,41.21
2019-04-07T11:55:26.817Z,39.22
2019-04-07T11:58:33.133Z,38.76
2019-04-07T12:01:28.181Z,38.69
2019-04-07T12:04:17.332Z,37.65
2019-04-07T12:07:00.027Z,35.64
2019-04-07T12:09:41.245Z,35.13
2019-04-07T12:12:40.407Z,34.66
2019-04-07T12:15:45.208Z,34.70
2019-04-07T12:18:49.376Z,33.66
2019-04-07T12:21:36.070Z,32.79
2019-04-07T12:24:25.858Z,32.36
2019-04-07T12:27:13.577Z,31.60
2019-04-07T12:30:02.865Z,31.85
2019-04-07T12:32:41.858Z,30.88
2019-04-07T12:35:37.030Z,29.49
2019-04-07T12:38:33.853Z,28.97
2019-04-07T12:41:31.816Z,28.24
2019-04-07T12:44:23.392Z,28.10
2019-04-07T12:47:12.417Z,27.61
2019-04-07T12:49:50.101Z,26.88
2019-04-07T12:52:35.497Z,26.26
2019-04-07T12:55:29.388Z,25.88
2019-04-07T12:58:10.810Z,25.68
2019-04-07T13:01:05.708Z,25.65
2019-04-07T13:03:48.144Z,24.75
2019-04-07T13:06:32.010Z,24.54
2019-04-07T13:09:11.669Z,24.79
2019-04-07T13:12:13.983Z,23.60
2019-04-07T13:14:56.249Z,22.83
2019-04-07T13:17:43.751Z,22.53
2019-04-07T13:20:37.217Z,22.32
2019-04-07T13:23:17.724Z,22.13
2019-04-07T13:26:02.300Z,21.12
2019-04-07T13:28:57.611Z,20.65
2019-04-07T13:31:46.071Z,19.71
2019-04-07T13:34:37.468Z,19.71
2019-04-07T13:37:21.711Z,19.00
2019-04-07T13:40:11.479Z,18.49
2019-04-07T13:43:04.240Z,17.84
2019-04-07T13:45:56.902Z,18.68
2019-04-07T13:48:38.132Z,18.51
2019-04-07T13:51:24.018Z,18.08
2019-04-07T13:54:22.278Z,18.58
2019-04-07T13:57:11.389Z,17.74
2019-04-07T13:59:52.104Z,17.47
2019-04-07T14:02:41.998Z,18.10
2019-04-07T14:05:40.038Z,17.88
2019-04-07T14:08:37.551Z,17.59
2019-04-07T14:11:18.702Z,17.02
2019-04-07T14:14:03.222Z,18.03
2019-04-07T14:16:50.912Z,17.32
2019-04-07T14:19:39.783Z,17.35
2019-04-07T14:22:17.677Z,17.15
2019-04-07T14:25:06.856Z,16.92
2019-04-07T14:27:47.316Z,16.21
2019-04-07T14:30:45.911Z,16.59
2019-04-07T14:33:33.832Z,16.54
2019-04-07T14:36:10.623Z,15.46
2019-04-07T14:38:58.601Z,15.35
2019-04-07T14:41:47.394Z,14.86
2019-04-07T14:44:32.044Z,15.41
2019-04-07T14:47:23.908Z,15.00
2019-04-07T14:50:12.111Z,15.74
2019-04-07T14:52:54.777Z,15.68
2019-04-07T14:55:34.150Z,15.14
2019-04-07T14:58:38.314Z,15.96
2019-04-07T15:01:25.809Z,15.61
2019-04-07T15:03:56.247Z,16.22
2019-04-07T15:06:30.948Z,15.60
2019-04-07T15:09:22.432Z,15.92
2019-04-07T15:11:58.764Z,15.77
2019-04-07T15:14:31.460Z,16.20
2019-04-07T15:17:01.004Z,15.83
2019-04-07T15:19:31.234Z,15.23
2019-04-07T15:22:03.026Z,15.60
2019-04-07T15:24:36.631Z,15.14
2019-04-07T15:27:07.906Z,15.22
2019-04-07T15:29:44.768Z,15.21
2019-04-07T15:32:14.196Z,15.38
2019-04-07T15:34:44.517Z,15.47
2019-04-07T15:37:15.408Z,15.57
2019-04-07T15:39:45.899Z,15.58
2019-04-07T15:42:31.434Z,15.41
2019-04-07T15:44:48.404Z,15.93
2019-04-07T15:47:23.137Z,15.75
2019-04-07T15:49:54.098Z,15.45
2019-04-07T15:52:24.650Z,15.71
2019-04-07T15:54:56.078Z,16.73
2019-04-07T15:57:26.414Z,16.04
2019-04-07T16:00:00.097Z,15.93
2019-04-07T16:02:28.968Z,16.19
2019-04-07T16:05:02.374Z,16.75
2019-04-07T16:07:31.729Z,16.71
2019-04-07T16:10:02.296Z,16.94
2019-04-07T16:12:43.500Z,16.96
2019-04-07T16:15:07.586Z,17.13
2019-04-07T16:17:38.453Z,16.66
2019-04-07T16:20:19.898Z,16.96
2019-04-07T16:22:45.792Z,16.78
2019-04-07T16:25:15.493Z,16.38
2019-04-07T16:27:47.483Z,15.87
2019-04-07T16:30:20.415Z,16.39
2019-04-07T16:32:51.170Z,15.78
2019-04-07T16:35:22.406Z,16.29
2019-04-07T16:37:53.195Z,16.52
2019-04-07T16:40:23.834Z,16.72
2019-04-07T16:43:04.575Z,17.05
2019-04-07T16:45:26.152Z,17.51
2019-04-07T16:47:56.589Z,18.33
2019-04-07T16:50:27.246Z,19.17
2019-04-07T16:53:03.031Z,20.00
2019-04-07T16:55:40.301Z,20.47
2019-04-07T16:58:14.510Z,20.79
2019-04-07T17:00:45.300Z,21.25
2019-04-07T17:03:15.589Z,21.90
2019-04-07T17:05:46.295Z,22.24
2019-04-07T17:08:19.405Z,22.46
2019-04-07T17:10:48.858Z,22.11
2019-04-07T17:13:28.158Z,21.73
2019-04-07T17:15:52.811Z,21.49
2019-04-07T17:18:43.410Z,21.65
2019-04-07T17:21:16.681Z,21.76
2019-04-07T17:23:47.636Z,21.96
2019-04-07T17:26:18.182Z,21.95
2019-04-07T17:28:49.840Z,21.93
2019-04-07T17:31:20.813Z,22.39
2019-04-07T17:33:51.989Z,22.62
2019-04-07T17:36:23.031Z,22.83
2019-04-07T17:39:11.594Z,23.21
2019-04-07T17:41:42.097Z,23.32
2019-04-07T17:44:23.081Z,23.77
2019-04-07T17:47:02.113Z,24.74
2019-04-07T17:50:04.270Z,25.79
2019-04-07T17:52:42.947Z,27.45
2019-04-07T17:55:35.031Z,28.90
2019-04-07T17:58:16.058Z,30.04
2019-04-07T18:01:06.221Z,30.83
2019-04-07T18:03:52.831Z,31.93
2019-04-07T18:06:38.651Z,33.20
2019-04-07T18:12:19.731Z,36.97
2019-04-07T18:15:17.510Z,37.76
2019-04-07T18:18:10.128Z,38.46
2019-04-07T18:20:56.118Z,39.30
2019-04-07T18:23:45.571Z,40.12
2019-04-07T18:26:25.153Z,40.74
2019-04-07T18:29:04.039Z,41.43
2019-04-07T18:31:57.880Z,42.29
2019-04-07T18:34:50.150Z,43.10
2019-04-07T18:37:52.882Z,43.78
2019-04-07T18:41:00.378Z,44.58
2019-04-07T18:43:51.995Z,46.72
2019-04-07T18:46:42.209Z,46.70
2019-04-07T18:49:31.420Z,46.99
2019-04-07T18:52:07.396Z,47.36
2019-04-07T18:55:07.768Z,47.98
2019-04-07T18:58:13.085Z,48.61
2019-04-07T19:00:54.162Z,49.25
2019-04-07T19:03:51.165Z,49.82
2019-04-07T19:06:48.764Z,50.50
2019-04-07T19:09:36.679Z,51.11
2019-04-07T19:12:23.234Z,51.66
2019-04-07T19:15:25.483Z,52.22
2019-04-07T19:18:14.884Z,52.87
2019-04-07T19:20:57.798Z,53.36
2019-04-07T19:23:45.782Z,53.93
2019-04-07T19:26:52.303Z,54.42
2019-04-07T19:29:43.444Z,55.01
2019-04-07T19:32:34.975Z,55.43
2019-04-07T19:35:21.874Z,55.85
2019-04-07T19:38:26.225Z,56.33
2019-04-07T19:41:18.763Z,56.86
2019-04-07T19:44:13.705Z,57.13
2019-04-07T19:46:48.392Z,57.47
2019-04-07T19:49:41.045Z,57.79
2019-04-07T19:52:48.239Z,58.22
2019-04-07T19:55:44.434Z,58.57
2019-04-07T19:58:19.851Z,58.94
2019-04-07T20:01:12.688Z,59.26
2019-04-07T20:03:53.917Z,59.65
2019-04-07T20:06:41.992Z,59.97
2019-04-07T20:09:27.875Z,60.33
2019-04-07T20:12:16.319Z,60.75
2019-04-07T20:15:03.006Z,61.21
2019-04-07T20:17:53.654Z,61.63
2019-04-07T20:20:55.085Z,61.89
2019-04-07T20:23:41.775Z,62.22
2019-04-07T20:26:31.108Z,62.50
2019-04-07T20:29:10.387Z,62.89
2019-04-07T20:34:37.393Z,64.06
2019-04-07T20:40:19.315Z,64.85
2019-04-07T20:45:16.250Z,66.00
2019-04-07T20:48:05.819Z,65.99
2019-04-07T20:50:54.106Z,65.90
2019-04-07T20:53:52.510Z,65.88
2019-04-07T20:56:33.196Z,65.81
2019-04-07T20:59:47.145Z,65.96
2019-04-07T21:02:27.052Z,66.11
2019-04-07T21:05:14.783Z,66.26
2019-04-07T21:08:00.742Z,66.49
2019-04-07T21:10:43.487Z,66.77
2019-04-07T21:13:36.290Z,67.10
2019-04-07T21:16:28.093Z,67.29
2019-04-07T21:19:18.794Z,67.48
2019-04-07T21:22:06.940Z,67.74
2019-04-07T21:25:02.068Z,67.88
2019-04-07T21:27:52.648Z,68.07
2019-04-07T21:30:48.381Z,68.24
2019-04-07T21:33:44.192Z,68.36
2019-04-07T21:36:32.577Z,68.51
2019-04-07T21:42:20.987Z,69.22
2019-04-07T21:45:27.824Z,69.24
2019-04-07T21:48:13.740Z,69.27
2019-04-07T21:50:51.597Z,69.27
2019-04-07T21:53:30.910Z,69.18
2019-04-07T21:56:23.118Z,69.12
2019-04-07T21:59:26.603Z,69.21
2019-04-07T22:02:15.330Z,69.27
2019-04-07T22:05:07.576Z,69.23
2019-04-07T22:07:44.733Z,69.23
2019-04-07T22:10:19.409Z,69.15
2019-04-07T22:12:47.779Z,69.19
2019-04-07T22:15:18.136Z,69.24
2019-04-07T22:17:48.390Z,69.34
2019-04-07T22:20:20.275Z,69.43
2019-04-07T22:22:51.312Z,69.52
2019-04-07T22:25:31.169Z,69.62
2019-04-07T22:28:01.677Z,69.64
2019-04-07T22:30:36.066Z,69.70
2019-04-07T22:33:04.199Z,69.78
2019-04-07T22:35:38.307Z,69.81
2019-04-07T22:38:07.270Z,69.89
2019-04-07T22:40:39.144Z,69.99
2019-04-07T22:43:09.643Z,70.00
2019-04-07T22:45:39.945Z,70.04
2019-04-07T22:48:10.281Z,70.16
2019-04-07T22:50:41.324Z,70.28
2019-04-07T22:53:11.646Z,70.36
2019-04-07T22:55:42.125Z,70.46
2019-04-07T22:58:12.425Z,70.63
2019-04-07T23:00:42.808Z,70.81
2019-04-07T23:03:12.987Z,70.96
2019-04-07T23:05:43.449Z,71.06
2019-04-07T23:08:14.542Z,71.28
2019-04-07T23:10:44.831Z,71.40
2019-04-07T23:13:15.410Z,71.50
2019-04-07T23:15:47.365Z,71.68
2019-04-07T23:18:17.945Z,71.85
2019-04-07T23:20:48.119Z,72.09
2019-04-07T23:23:18.341Z,72.18
2019-04-07T23:25:48.521Z,72.41
2019-04-07T23:28:18.917Z,72.53
2019-04-07T23:30:49.309Z,72.67
2019-04-07T23:33:20.200Z,72.79
2019-04-07T23:35:50.379Z,72.97
2019-04-07T23:38:20.513Z,73.13
2019-04-07T23:40:51.510Z,73.28
2019-04-07T23:43:21.789Z,73.48
2019-04-07T23:45:51.956Z,73.75
2019-04-07T23:48:22.360Z,73.92
2019-04-07T23:50:52.509Z,74.12
2019-04-07T23:54:14.429Z,75.33
2019-04-07T23:56:45.812Z,75.29
2019-04-07T23:59:16.811Z,75.25
